Whippleville, New York
Current Conditions -  °F | °C
As of 9:14 AM on Sunday 25 Jan 2015 (Local Time) from KSLK Reporting Station
Haze Haze  
Wind Chill: -8°   Ceiling: 1700
Heat Index:   Visibility: 6mi
Dew Point: -2°   Wind: 6mph
Humidity: 80%   Direction: NA
Pressure: 29.63"   Gusts: NA
Location:  44.81°N, 74.26°W
Report Text: KSLK 251414Z AUTO VRB05KT 6SM HZ OVC017 M16/M19 A2963 RMK AO2 SNB1359E11 P0000 T11611189
Loading
Personal Weather Stations






























Interactive Weather Map New forecast layout! Learn more

10-Day Weather Forecast

Advertisements
Track Severe Weather on mobile